Flight Track Log - Related Links

Times and Time Zones

All times are in EDT time to prevent confusion due to time zone crossing. See the TMC495 flight status page for this flight to view local times or setup timezone preferences in your user account.

Time Position Orientation Groundspeed Altitude Reporting Facility
EDT Latitude Longitude Course Direction KTS MPH feet Rate Location/Type
Fri 03:11:32 PM 42.1833 -70.8000 226° Southwest 281 323 9,000  Level KA90
Fri 03:13:00 PM 42.1604 -70.8323 226° Southwest  Level Estimated
Fri 03:20:00 PM 42.0509 -70.9864 226° Southwest  Level Estimated
Fri 03:21:00 PM 42.0352 -71.0083 226° Southwest  Level Estimated
Fri 03:22:00 PM 42.0195 -71.0303 226° Southwest  Level Estimated
Fri 03:23:00 PM 42.0039 -71.0522 226° Southwest  Level Estimated
Fri 03:24:00 PM 41.9882 -71.0742 226° Southwest  Level Estimated
Fri 03:25:00 PM 41.9725 -71.0961 226° Southwest  Level Estimated
Fri 03:26:00 PM 41.9568 -71.1180 226° Southwest  Level Estimated
Fri 03:27:00 PM 41.9411 -71.1399 226° Southwest  Level Estimated
Fri 03:28:00 PM 41.9254 -71.1618 226° Southwest  Level Estimated
Fri 03:29:00 PM 41.9097 -71.1837 226° Southwest  Level Estimated
Fri 03:30:00 PM 41.8940 -71.2055 226° Southwest  Level Estimated
Fri 03:31:00 PM 41.8783 -71.2274 226° Southwest  Level Estimated
Fri 03:32:00 PM 41.8626 -71.2492 226° Southwest  Level Estimated
Fri 03:33:00 PM 41.8469 -71.2710 226° Southwest  Level Estimated
Fri 03:34:00 PM 41.8312 -71.2929 226° Southwest  Level Estimated
Fri 03:35:00 PM 41.8154 -71.3147 226° Southwest  Level Estimated
Fri 03:36:00 PM 41.7997 -71.3365 226° Southwest  Level Estimated
Fri 03:37:00 PM 41.7840 -71.3583 226° Southwest  Level Estimated
Fri 03:38:00 PM 41.7682 -71.3800 226° Southwest  Level Estimated
Fri 03:39:00 PM 41.7525 -71.4018 226° Southwest  Level Estimated
Fri 03:40:00 PM 41.7368 -71.4236 226° Southwest  Level Estimated
Fri 03:41:00 PM 41.7210 -71.4453 226° Southwest  Level Estimated
Fri 03:42:00 PM 41.7053 -71.4671 226° Southwest  Level Estimated
Fri 03:43:00 PM 41.6895 -71.4888 226° Southwest  Level Estimated
Fri 03:44:00 PM 41.6737 -71.5105 226° Southwest  Level Estimated
Fri 03:45:00 PM 41.6580 -71.5322 226° Southwest  Level Estimated
Fri 03:46:00 PM 41.6422 -71.5539 226° Southwest  Level Estimated
Fri 03:47:00 PM 41.6264 -71.5756 226° Southwest  Level Estimated
Fri 03:48:00 PM 41.6106 -71.5972 226° Southwest  Level Estimated
Fri 03:49:00 PM 41.5949 -71.6189 226° Southwest  Level Estimated
Fri 03:50:00 PM 41.5791 -71.6405 226° Southwest  Level Estimated
Fri 03:51:00 PM 41.5633 -71.6622 226° Southwest  Level Estimated
Fri 03:52:00 PM 41.5475 -71.6838 226° Southwest  Level Estimated
Fri 03:53:00 PM 41.5317 -71.7054 226° Southwest  Level Estimated
Fri 03:54:00 PM 41.5159 -71.7271 226° Southwest  Level Estimated
Fri 03:55:00 PM 41.5001 -71.7486 226° Southwest  Level Estimated
Fri 03:56:00 PM 41.4843 -71.7702 226° Southwest  Level Estimated
Fri 03:57:00 PM 41.4685 -71.7918 226° Southwest  Level Estimated
Fri 03:58:00 PM 41.4526 -71.8134 226° Southwest  Level Estimated
Fri 03:59:00 PM 41.4368 -71.8350 226° Southwest  Level Estimated
Fri 04:00:00 PM 41.4210 -71.8565 226° Southwest  Level Estimated
Fri 04:01:00 PM 41.4052 -71.8780 226° Southwest  Level Estimated
Fri 04:02:00 PM 41.3893 -71.8996 226° Southwest  Level Estimated
Fri 04:03:00 PM 41.3735 -71.9211 226° Southwest  Level Estimated
Fri 04:04:00 PM 41.3577 -71.9426 226° Southwest  Level Estimated
Fri 04:05:00 PM 41.3418 -71.9641 226° Southwest  Level Estimated
Fri 04:06:00 PM 41.3260 -71.9855 226° Southwest  Level Estimated
Fri 04:07:00 PM 41.3101 -72.0070 225° Southwest  Level Estimated
Fri 04:08:00 PM 41.2943 -72.0285 225° Southwest  Level Estimated
Fri 04:09:00 PM 41.2784 -72.0499 225° Southwest  Level Estimated
Fri 04:10:00 PM 41.2625 -72.0714 225° Southwest  Level Estimated
Fri 04:11:00 PM 41.2467 -72.0928 225° Southwest  Level Estimated
Fri 04:12:00 PM 41.2308 -72.1142 225° Southwest  Level Estimated
Fri 04:13:00 PM 41.2149 -72.1356 225° Southwest  Level Estimated
Fri 04:14:00 PM 41.1990 -72.1570 225° Southwest  Level Estimated
Fri 04:15:00 PM 41.1831 -72.1784 225° Southwest  Level Estimated
Fri 04:16:00 PM 41.1672 -72.1998 225° Southwest  Level Estimated
Fri 04:17:00 PM 41.1513 -72.2212 225° Southwest  Level Estimated
Fri 04:18:00 PM 41.1354 -72.2425 225° Southwest  Level Estimated
Fri 04:19:00 PM 41.1195 -72.2639 225° Southwest  Level Estimated
Fri 04:20:00 PM 41.1036 -72.2852 225° Southwest  Level Estimated
Fri 04:21:00 PM 41.0877 -72.3065 225° Southwest  Level Estimated
Fri 04:22:00 PM 41.0718 -72.3279 225° Southwest  Level Estimated
Fri 04:23:00 PM 41.0559 -72.3492 225° Southwest  Level Estimated
Fri 04:24:00 PM 41.0400 -72.3705 225° Southwest  Level Estimated
Fri 04:25:00 PM 41.0241 -72.3918 225° Southwest  Level Estimated
Fri 04:26:00 PM 41.0081 -72.4130 225° Southwest  Level Estimated
Fri 04:27:00 PM 40.9922 -72.4343 225° Southwest  Level Estimated
Fri 04:28:00 PM 40.9762 -72.4556 225° Southwest  Level Estimated
Fri 04:29:00 PM 40.9603 -72.4768 225° Southwest  Level Estimated
Fri 04:30:00 PM 40.9444 -72.4980 225° Southwest  Level Estimated
Fri 04:31:00 PM 40.9284 -72.5192 225° Southwest  Level Estimated
Fri 04:32:00 PM 40.9125 -72.5405 225° Southwest  Level Estimated
Fri 04:33:00 PM 40.8965 -72.5617 225° Southwest  Level Estimated
Fri 04:34:00 PM 40.8806 -72.5828 225° Southwest  Level Estimated
Fri 04:35:00 PM 40.8646 -72.6040 225° Southwest  Level Estimated
Fri 04:36:00 PM 40.8486 -72.6252 225° Southwest  Level Estimated
Fri 04:37:00 PM 40.8437 -72.6318 225° Southwest  Level Estimated
Fri 04:38:00 PM 40.8437 -72.6318 153° Southeast  Level Estimated
Fri 04:39:00 PM 40.8437 -72.6318 153° Southeast  Level Estimated
Fri 04:40:00 PM 40.8437 -72.6318 153° Southeast  Level Estimated
Fri 04:41:00 PM 40.8437 -72.6318 153° Southeast  Level Estimated
Fri 04:42:00 PM 40.8437 -72.6318 153° Southeast  Level Estimated
Fri 04:43:00 PM 40.8437 -72.6318 153° Southeast  Level Estimated
Fri 04:44:00 PM 40.8437 -72.6318 153° Southeast  Level Estimated
Fri 04:45:00 PM 40.8437 -72.6318 153° Southeast  Level Estimated
Fri 04:46:00 PM 40.8437 -72.6318 153° Southeast  Level Estimated
Fri 04:47:00 PM 40.8437 -72.6318 153° Southeast  Level Estimated
Fri 04:48:00 PM 40.8437 -72.6318 153° Southeast  Level Estimated
Fri 04:49:00 PM 40.8437 -72.6318 153° Southeast  Level Estimated
Fri 04:50:00 PM 40.8437 -72.6318 153° Southeast  Level Estimated
Fri 04:51:00 PM 40.8437 -72.6318 153° Southeast  Level Estimated
Fri 04:52:00 PM 40.8437 -72.6318 153° Southeast  Level Estimated
Fri 04:53:00 PM 40.8437 -72.6318 153° Southeast  Level Estimated

Login

Don't have an account? Register now (free) for customized features, flight alerts, and more!